OCN2B EDDF-LDDU
Flight info
| Callsign | OCN2B |
|---|---|
| Flight time | N/A |
| Altitude | 37000 |
| Route | CINDY8S/18 CINDY Z74 LAMPU DCT NOMBO Y161 MAH DCT VAVOR DCT RADIZ DCT SABAD DCT SIPAL L607 NERRA |
| Aircraft | A320/M-SDE3FGHIRWY/LB1 |
Departure
| Time | 2026-04-17 13:55 |
|---|---|
| Airport | Frankfurt Main Airport (EDDF) |
Arrival
| Time | N/A |
|---|---|
| Airport | Dubrovnik Ruđer Bošković Airport (LDDU) |
| Time | Latitude | Longitude | Altitude | Speed | Heading |
|---|---|---|---|---|---|
| 2026-04-17 13:15 | 50.04895 | 8.56994 | 361 ft | 0 kts | 295° |
| 2026-04-17 13:44 | 50.04891 | 8.57009 | 361 ft | 4 kts | 293° |
| 2026-04-17 13:45 | 50.04880 | 8.57047 | 359 ft | 4 kts | 296° |
| 2026-04-17 13:45 | 50.04871 | 8.57082 | 362 ft | 4 kts | 256° |
| 2026-04-17 13:45 | 50.04868 | 8.57080 | 361 ft | 4 kts | 234° |
| 2026-04-17 13:45 | 50.04845 | 8.57063 | 357 ft | 4 kts | 199° |
| 2026-04-17 13:46 | 50.04820 | 8.57050 | 358 ft | 4 kts | 198° |
| 2026-04-17 13:46 | 50.04796 | 8.57035 | 356 ft | 2 kts | 204° |
| 2026-04-17 13:46 | 50.04794 | 8.57034 | 356 ft | 0 kts | 205° |
| 2026-04-17 13:49 | 50.04784 | 8.57027 | 356 ft | 2 kts | 205° |
| 2026-04-17 13:49 | 50.04735 | 8.56992 | 362 ft | 10 kts | 204° |
| 2026-04-17 13:49 | 50.04679 | 8.56952 | 360 ft | 8 kts | 205° |
| 2026-04-17 13:49 | 50.04609 | 8.56912 | 356 ft | 14 kts | 193° |
| 2026-04-17 13:50 | 50.04524 | 8.56883 | 359 ft | 11 kts | 192° |
| 2026-04-17 13:50 | 50.04454 | 8.56831 | 359 ft | 15 kts | 227° |
| 2026-04-17 13:50 | 50.04405 | 8.56634 | 362 ft | 21 kts | 250° |
| 2026-04-17 13:50 | 50.04350 | 8.56403 | 361 ft | 24 kts | 249° |
| 2026-04-17 13:51 | 50.04289 | 8.56150 | 357 ft | 26 kts | 249° |
| 2026-04-17 13:51 | 50.04224 | 8.55874 | 360 ft | 28 kts | 250° |
| 2026-04-17 13:51 | 50.04154 | 8.55578 | 352 ft | 30 kts | 249° |
| 2026-04-17 13:51 | 50.04078 | 8.55270 | 360 ft | 31 kts | 249° |
| 2026-04-17 13:52 | 50.04003 | 8.54955 | 359 ft | 32 kts | 250° |
| 2026-04-17 13:52 | 50.03925 | 8.54624 | 350 ft | 33 kts | 250° |
| 2026-04-17 13:52 | 50.03851 | 8.54351 | 354 ft | 23 kts | 236° |
| 2026-04-17 13:52 | 50.03777 | 8.54126 | 350 ft | 24 kts | 250° |
| 2026-04-17 13:53 | 50.03715 | 8.53870 | 352 ft | 26 kts | 249° |
| 2026-04-17 13:53 | 50.03650 | 8.53605 | 350 ft | 26 kts | 249° |
| 2026-04-17 13:53 | 50.03589 | 8.53355 | 337 ft | 22 kts | 250° |
| 2026-04-17 13:53 | 50.03532 | 8.53118 | 337 ft | 24 kts | 249° |
| 2026-04-17 13:54 | 50.03423 | 8.52685 | 334 ft | 19 kts | 249° |
| 2026-04-17 13:54 | 50.03363 | 8.52594 | 335 ft | 7 kts | 187° |
| 2026-04-17 13:55 | 50.02971 | 8.52598 | 335 ft | 85 kts | 179° |
| 2026-04-17 13:55 | 50.02172 | 8.52607 | 335 ft | 142 kts | 180° |
| 2026-04-17 13:55 | 49.99909 | 8.52633 | 1331 ft | 163 kts | 180° |
| 2026-04-17 13:56 | 49.97444 | 8.52806 | 2137 ft | 201 kts | 165° |
| 2026-04-17 13:56 | 49.96228 | 8.54042 | 2471 ft | 223 kts | 130° |
| 2026-04-17 13:56 | 49.95474 | 8.56255 | 2963 ft | 240 kts | 111° |
| 2026-04-17 13:57 | 49.94807 | 8.58564 | 3908 ft | 234 kts | 118° |
| 2026-04-17 13:57 | 49.94141 | 8.60899 | 4638 ft | 245 kts | 105° |
| 2026-04-17 13:57 | 49.93846 | 8.66562 | 5837 ft | 272 kts | 102° |
| 2026-04-17 13:58 | 49.93165 | 8.69317 | 6662 ft | 275 kts | 123° |
| 2026-04-17 13:58 | 49.90363 | 8.73314 | 8327 ft | 279 kts | 146° |
| 2026-04-17 13:58 | 49.88841 | 8.75196 | 9174 ft | 282 kts | 135° |
| 2026-04-17 13:59 | 49.86540 | 8.80238 | 10550 ft | 298 kts | 130° |
| 2026-04-17 13:59 | 49.85109 | 8.82672 | 10764 ft | 321 kts | 135° |
| 2026-04-17 13:59 | 49.83448 | 8.85176 | 10942 ft | 345 kts | 137° |
| 2026-04-17 14:00 | 49.81652 | 8.87822 | 11071 ft | 367 kts | 136° |
| 2026-04-17 14:00 | 49.79773 | 8.90661 | 11203 ft | 388 kts | 136° |
| 2026-04-17 14:00 | 49.77844 | 8.93687 | 11608 ft | 398 kts | 135° |
| 2026-04-17 14:00 | 49.75923 | 8.96801 | 12193 ft | 403 kts | 134° |
| 2026-04-17 14:01 | 49.73991 | 8.99992 | 12748 ft | 407 kts | 133° |
| 2026-04-17 14:01 | 49.72055 | 9.03212 | 13309 ft | 412 kts | 133° |
| 2026-04-17 14:01 | 49.70089 | 9.06480 | 13849 ft | 416 kts | 133° |
| 2026-04-17 14:01 | 49.68104 | 9.09766 | 14375 ft | 420 kts | 134° |
| 2026-04-17 14:02 | 49.66094 | 9.13076 | 14844 ft | 424 kts | 134° |
| 2026-04-17 14:02 | 49.64064 | 9.16403 | 15337 ft | 427 kts | 134° |
| 2026-04-17 14:02 | 49.62025 | 9.19736 | 15828 ft | 430 kts | 134° |
| 2026-04-17 14:02 | 49.59984 | 9.23064 | 16298 ft | 433 kts | 134° |
| 2026-04-17 14:03 | 49.57905 | 9.26443 | 16788 ft | 436 kts | 134° |
| 2026-04-17 14:03 | 49.55805 | 9.29848 | 17264 ft | 439 kts | 134° |
| 2026-04-17 14:03 | 49.53694 | 9.33269 | 17725 ft | 442 kts | 134° |
| 2026-04-17 14:03 | 49.51571 | 9.36713 | 18201 ft | 445 kts | 134° |
| 2026-04-17 14:04 | 49.49422 | 9.40200 | 18621 ft | 448 kts | 134° |
| 2026-04-17 14:04 | 49.47270 | 9.43687 | 18994 ft | 452 kts | 134° |
| 2026-04-17 14:04 | 49.45092 | 9.47207 | 19321 ft | 456 kts | 134° |
| 2026-04-17 14:04 | 49.42902 | 9.50743 | 19686 ft | 459 kts | 134° |
| 2026-04-17 14:05 | 49.40692 | 9.54306 | 20040 ft | 462 kts | 134° |
| 2026-04-17 14:05 | 49.38467 | 9.57885 | 20394 ft | 464 kts | 134° |
| 2026-04-17 14:05 | 49.36228 | 9.61477 | 20741 ft | 467 kts | 134° |
| 2026-04-17 14:05 | 49.33978 | 9.65081 | 21083 ft | 469 kts | 134° |
| 2026-04-17 14:06 | 49.31709 | 9.68715 | 21443 ft | 471 kts | 134° |
| 2026-04-17 14:06 | 49.29437 | 9.72349 | 21781 ft | 474 kts | 134° |
| 2026-04-17 14:06 | 49.27166 | 9.75968 | 22100 ft | 476 kts | 134° |
| 2026-04-17 14:06 | 49.24863 | 9.79624 | 22411 ft | 479 kts | 134° |
| 2026-04-17 14:07 | 49.22537 | 9.83309 | 22703 ft | 481 kts | 134° |
| 2026-04-17 14:07 | 49.20204 | 9.86998 | 22977 ft | 484 kts | 134° |
| 2026-04-17 14:07 | 49.18654 | 9.89445 | 23172 ft | 485 kts | 134° |
| 2026-04-17 14:07 | 49.16295 | 9.93159 | 23465 ft | 488 kts | 134° |
| 2026-04-17 14:08 | 49.13918 | 9.96898 | 23754 ft | 490 kts | 134° |
| 2026-04-17 14:08 | 49.11541 | 10.00643 | 24006 ft | 492 kts | 134° |
| 2026-04-17 14:08 | 49.09161 | 10.04395 | 24272 ft | 493 kts | 134° |
| 2026-04-17 14:08 | 49.06781 | 10.08142 | 24632 ft | 492 kts | 134° |
| 2026-04-17 14:09 | 49.04371 | 10.11834 | 25022 ft | 490 kts | 136° |
| 2026-04-17 14:09 | 49.01903 | 10.15419 | 25394 ft | 489 kts | 137° |
| 2026-04-17 14:09 | 48.99399 | 10.18916 | 25752 ft | 489 kts | 138° |
| 2026-04-17 14:09 | 48.96860 | 10.22392 | 26100 ft | 489 kts | 138° |
| 2026-04-17 14:10 | 48.94338 | 10.25840 | 26467 ft | 488 kts | 138° |
| 2026-04-17 14:10 | 48.91858 | 10.29265 | 26846 ft | 487 kts | 137° |
| 2026-04-17 14:10 | 48.89358 | 10.32764 | 27230 ft | 487 kts | 137° |
| 2026-04-17 14:10 | 48.86878 | 10.36265 | 27610 ft | 486 kts | 136° |
| 2026-04-17 14:11 | 48.84399 | 10.39776 | 28004 ft | 485 kts | 136° |
| 2026-04-17 14:11 | 48.81953 | 10.43289 | 28386 ft | 484 kts | 135° |
| 2026-04-17 14:11 | 48.79577 | 10.46915 | 28767 ft | 484 kts | 133° |
| 2026-04-17 14:11 | 48.77265 | 10.50630 | 29147 ft | 483 kts | 132° |
| 2026-04-17 14:12 | 48.74990 | 10.54384 | 29544 ft | 483 kts | 131° |
| 2026-04-17 14:12 | 48.72726 | 10.58133 | 29926 ft | 482 kts | 131° |
| 2026-04-17 14:12 | 48.70481 | 10.61817 | 30308 ft | 482 kts | 132° |
| 2026-04-17 14:13 | 48.65889 | 10.69192 | 30942 ft | 481 kts | 133° |
| 2026-04-17 14:13 | 48.63576 | 10.72842 | 31259 ft | 481 kts | 133° |
| 2026-04-17 14:13 | 48.61260 | 10.76478 | 31573 ft | 480 kts | 133° |
| 2026-04-17 14:13 | 48.58940 | 10.80119 | 31884 ft | 480 kts | 133° |
| 2026-04-17 14:14 | 48.56631 | 10.83771 | 32174 ft | 480 kts | 133° |
| 2026-04-17 14:14 | 48.54339 | 10.87430 | 32476 ft | 480 kts | 133° |
| 2026-04-17 14:14 | 48.52050 | 10.91100 | 32774 ft | 481 kts | 132° |
| 2026-04-17 14:14 | 48.49761 | 10.94773 | 33071 ft | 481 kts | 132° |
| 2026-04-17 14:15 | 48.47466 | 10.98440 | 33373 ft | 481 kts | 133° |
| 2026-04-17 14:15 | 48.45160 | 11.02077 | 33671 ft | 481 kts | 133° |
| 2026-04-17 14:15 | 48.42835 | 11.05704 | 33977 ft | 481 kts | 133° |
| 2026-04-17 14:15 | 48.40501 | 11.09314 | 34261 ft | 481 kts | 133° |
| 2026-04-17 14:16 | 48.38166 | 11.12919 | 34529 ft | 481 kts | 133° |
| 2026-04-17 14:16 | 48.35834 | 11.16522 | 34792 ft | 480 kts | 133° |
| 2026-04-17 14:16 | 48.33506 | 11.20122 | 35047 ft | 480 kts | 133° |
| 2026-04-17 14:16 | 48.31174 | 11.23728 | 35302 ft | 480 kts | 133° |
| 2026-04-17 14:17 | 48.28845 | 11.27328 | 35493 ft | 481 kts | 133° |
| 2026-04-17 14:17 | 48.26624 | 11.31081 | 35719 ft | 481 kts | 126° |
| 2026-04-17 14:17 | 48.24775 | 11.35240 | 35921 ft | 479 kts | 118° |
| 2026-04-17 14:17 | 48.23121 | 11.39585 | 36128 ft | 479 kts | 118° |
| 2026-04-17 14:18 | 48.21461 | 11.43917 | 36325 ft | 479 kts | 118° |
| 2026-04-17 14:18 | 48.19795 | 11.48231 | 36552 ft | 479 kts | 118° |
| 2026-04-17 14:18 | 48.18116 | 11.52555 | 36757 ft | 479 kts | 118° |
| 2026-04-17 14:18 | 48.16433 | 11.56876 | 36958 ft | 479 kts | 119° |
| 2026-04-17 14:19 | 48.14778 | 11.61123 | 37149 ft | 480 kts | 118° |
| 2026-04-17 14:19 | 48.13089 | 11.65454 | 37209 ft | 483 kts | 118° |
| 2026-04-17 14:19 | 48.09668 | 11.74212 | 37192 ft | 489 kts | 119° |
| 2026-04-17 14:20 | 48.06232 | 11.82986 | 37190 ft | 489 kts | 119° |
| 2026-04-17 14:20 | 48.02786 | 11.91752 | 37180 ft | 489 kts | 119° |
| 2026-04-17 14:21 | 47.99331 | 12.00527 | 37183 ft | 490 kts | 119° |